createdAt,value
2023-05-22T00:01:56.685Z,13.40
2023-05-22T00:04:23.970Z,11.38
2023-05-22T00:06:50.806Z,12.20
2023-05-22T00:09:18.028Z,11.57
2023-05-22T00:11:45.124Z,14.00
2023-05-22T00:14:13.584Z,10.87
2023-05-22T00:16:41.157Z,12.82
2023-05-22T00:19:17.416Z,15.20
2023-05-22T00:21:44.435Z,14.45
2023-05-22T00:24:11.451Z,10.77
2023-05-22T00:26:38.333Z,16.40
2023-05-22T00:29:08.466Z,13.70
2023-05-22T00:31:35.281Z,13.68
2023-05-22T00:34:02.377Z,14.00
2023-05-22T00:36:29.295Z,12.95
2023-05-22T00:38:56.444Z,14.63
2023-05-22T00:41:23.704Z,17.45
2023-05-22T00:43:51.352Z,15.88
2023-05-22T00:46:21.580Z,12.90
2023-05-22T00:48:49.237Z,12.82
2023-05-22T00:51:16.213Z,12.38
2023-05-22T00:53:43.674Z,11.85
2023-05-22T00:56:10.606Z,17.63
2023-05-22T00:58:37.926Z,14.63
2023-05-22T01:01:07.715Z,11.90
2023-05-22T01:03:45.063Z,14.83
2023-05-22T01:06:16.030Z,12.70
2023-05-22T01:08:45.462Z,11.82
2023-05-22T01:11:28.462Z,17.17
2023-05-22T01:14:04.157Z,13.15
2023-05-22T01:16:48.770Z,12.77
2023-05-22T01:19:43.740Z,16.42
2023-05-22T01:22:50.014Z,15.90
2023-05-22T01:25:35.533Z,15.00
2023-05-22T01:28:27.251Z,10.70
2023-05-22T01:30:57.833Z,13.70
2023-05-22T01:33:26.489Z,14.30
2023-05-22T01:35:57.185Z,12.33
2023-05-22T01:38:25.400Z,12.70
2023-05-22T01:40:54.011Z,11.77
2023-05-22T01:43:21.351Z,12.27
2023-05-22T01:45:48.405Z,13.23
2023-05-22T01:48:15.980Z,13.60
2023-05-22T01:50:45.256Z,13.20
2023-05-22T01:53:19.759Z,13.60
2023-05-22T01:55:57.880Z,14.80
2023-05-22T01:58:34.280Z,16.23
2023-05-22T02:01:03.580Z,19.67
2023-05-22T02:03:32.207Z,13.88
2023-05-22T02:06:03.994Z,18.40
2023-05-22T02:08:31.794Z,12.30
2023-05-22T02:11:00.620Z,17.37
2023-05-22T02:13:28.255Z,15.13
2023-05-22T02:15:56.783Z,15.25
2023-05-22T02:18:31.087Z,14.55
2023-05-22T02:20:59.029Z,13.02
2023-05-22T02:23:29.467Z,13.60
2023-05-22T02:25:57.157Z,14.95
2023-05-22T02:28:24.207Z,15.40
2023-05-22T02:30:51.451Z,16.03
2023-05-22T02:33:18.656Z,15.97
2023-05-22T02:35:45.995Z,26.65
2023-05-22T02:38:12.988Z,20.43
2023-05-22T02:40:40.752Z,18.67
2023-05-22T02:43:08.017Z,18.37
2023-05-22T02:45:35.121Z,19.47
2023-05-22T02:48:03.554Z,15.68
2023-05-22T02:50:31.990Z,15.93
2023-05-22T02:52:58.727Z,15.03
2023-05-22T02:55:25.767Z,15.10
2023-05-22T02:57:52.505Z,13.00
2023-05-22T03:00:20.582Z,17.77
2023-05-22T03:02:47.432Z,15.40
2023-05-22T03:05:17.853Z,18.00
2023-05-22T03:07:47.406Z,13.37
2023-05-22T03:10:15.640Z,18.40
2023-05-22T03:12:42.563Z,15.00
2023-05-22T03:15:11.366Z,16.45
2023-05-22T03:17:40.451Z,16.85
2023-05-22T03:20:08.836Z,17.50
2023-05-22T03:22:36.078Z,21.27
2023-05-22T03:25:04.010Z,14.97
2023-05-22T03:27:30.734Z,17.57
2023-05-22T03:29:57.799Z,21.00
2023-05-22T03:32:24.660Z,13.77
2023-05-22T03:34:52.067Z,11.60
2023-05-22T03:37:18.819Z,16.47
2023-05-22T03:39:45.950Z,14.00
2023-05-22T03:42:38.982Z,13.43
2023-05-22T03:45:07.641Z,14.83
2023-05-22T03:47:34.455Z,16.33
2023-05-22T03:50:03.195Z,14.07
2023-05-22T03:52:30.017Z,16.77
2023-05-22T03:54:57.142Z,18.27
2023-05-22T03:57:23.883Z,16.13
2023-05-22T03:59:50.982Z,13.93
2023-05-22T04:02:18.076Z,15.07
2023-05-22T04:04:46.380Z,16.23
2023-05-22T04:07:13.492Z,14.02
2023-05-22T04:09:41.225Z,17.87
2023-05-22T04:12:08.727Z,17.43
2023-05-22T04:14:35.772Z,15.57
2023-05-22T04:17:02.594Z,15.05
2023-05-22T04:19:30.141Z,13.05
2023-05-22T04:21:58.316Z,13.25
2023-05-22T04:24:25.466Z,16.58
2023-05-22T04:26:52.296Z,12.65
2023-05-22T04:29:19.630Z,17.80
2023-05-22T04:31:46.479Z,20.13
2023-05-22T04:34:16.071Z,16.65
2023-05-22T04:36:45.251Z,27.40
2023-05-22T04:39:13.964Z,19.95
2023-05-22T04:41:41.445Z,20.73
2023-05-22T04:44:08.721Z,15.75
2023-05-22T04:46:36.073Z,17.10
2023-05-22T04:49:03.473Z,20.85
2023-05-22T04:51:31.394Z,19.13
2023-05-22T04:53:58.612Z,19.60
2023-05-22T04:56:35.353Z,22.15
2023-05-22T04:59:05.582Z,24.02
2023-05-22T05:01:35.207Z,21.50
2023-05-22T05:04:03.791Z,21.55
2023-05-22T05:06:30.895Z,20.67
2023-05-22T05:08:58.129Z,13.57
2023-05-22T05:11:25.153Z,21.40
2023-05-22T05:13:52.418Z,23.33
2023-05-22T05:16:19.292Z,23.13
2023-05-22T05:18:46.386Z,19.27
2023-05-22T05:21:13.631Z,19.92
2023-05-22T05:23:41.216Z,19.45
2023-05-22T05:26:08.352Z,16.67
2023-05-22T05:28:35.618Z,19.08
2023-05-22T05:31:03.185Z,21.50
2023-05-22T05:33:52.092Z,20.15
2023-05-22T05:36:46.837Z,24.33
2023-05-22T05:39:14.249Z,11.80
2023-05-22T05:41:41.166Z,15.32
2023-05-22T05:44:09.948Z,15.00
2023-05-22T05:46:37.723Z,16.60
2023-05-22T05:49:10.143Z,15.30
2023-05-22T05:51:38.837Z,15.43
2023-05-22T05:54:06.725Z,20.20
2023-05-22T05:56:34.294Z,16.88
2023-05-22T05:59:02.383Z,13.50
2023-05-22T06:01:52.103Z,19.52
2023-05-22T06:04:24.141Z,17.70
2023-05-22T06:06:53.198Z,19.15
2023-05-22T06:09:32.514Z,15.45
2023-05-22T06:12:16.056Z,12.35
2023-05-22T06:14:45.220Z,15.30
2023-05-22T06:17:13.308Z,22.20
2023-05-22T06:19:42.394Z,12.50
2023-05-22T06:22:09.781Z,12.77
2023-05-22T06:24:39.454Z,12.45
2023-05-22T06:27:12.065Z,12.45
2023-05-22T06:29:39.647Z,13.63
2023-05-22T06:32:07.806Z,15.52
2023-05-22T06:34:36.536Z,10.93
2023-05-22T06:37:03.759Z,21.00
2023-05-22T06:39:36.343Z,13.38
2023-05-22T06:42:13.364Z,11.40
2023-05-22T06:44:59.240Z,13.02
2023-05-22T06:47:34.908Z,12.48
2023-05-22T06:50:02.092Z,16.05
2023-05-22T06:52:28.923Z,11.75
2023-05-22T06:55:04.159Z,15.25
2023-05-22T06:57:31.926Z,10.77
2023-05-22T07:00:01.151Z,11.73
2023-05-22T07:02:46.385Z,13.30
2023-05-22T07:05:24.345Z,11.40
2023-05-22T07:07:57.406Z,11.98
2023-05-22T07:10:27.510Z,13.60
2023-05-22T07:12:55.959Z,9.23
2023-05-22T07:15:23.613Z,6.95
2023-05-22T07:17:53.528Z,10.27
2023-05-22T07:20:21.012Z,11.27
2023-05-22T07:22:59.840Z,12.25
2023-05-22T07:25:27.234Z,9.73
2023-05-22T07:27:55.867Z,9.40
2023-05-22T07:30:24.956Z,8.65
2023-05-22T07:32:51.982Z,6.53
2023-05-22T07:35:19.995Z,8.02
2023-05-22T07:37:46.851Z,9.55
2023-05-22T07:40:15.810Z,8.73
2023-05-22T07:42:42.625Z,6.25
2023-05-22T07:45:12.310Z,6.65
2023-05-22T07:47:39.842Z,8.90
2023-05-22T07:50:07.744Z,5.75
2023-05-22T07:52:37.651Z,9.10
2023-05-22T07:55:07.856Z,10.63
2023-05-22T07:57:38.492Z,6.43
2023-05-22T08:00:14.846Z,9.27
2023-05-22T08:02:41.822Z,6.20
2023-05-22T08:05:10.104Z,6.22
2023-05-22T08:07:37.416Z,12.10
2023-05-22T08:10:08.264Z,8.52
2023-05-22T08:12:35.481Z,5.03
2023-05-22T08:15:02.556Z,6.82
2023-05-22T08:17:29.484Z,7.90
2023-05-22T08:19:56.714Z,8.05
2023-05-22T08:22:23.521Z,11.55
2023-05-22T08:24:50.647Z,5.22
2023-05-22T08:27:17.485Z,7.00
2023-05-22T08:29:44.511Z,10.07
2023-05-22T08:32:11.374Z,8.63
2023-05-22T08:34:40.282Z,8.57
2023-05-22T08:37:07.233Z,8.25
2023-05-22T08:39:34.319Z,8.55
2023-05-22T08:42:03.236Z,4.78
2023-05-22T08:44:30.464Z,7.18
2023-05-22T08:47:00.221Z,6.07
2023-05-22T08:49:27.733Z,6.18
2023-05-22T08:51:59.890Z,5.97
2023-05-22T08:54:28.533Z,8.30
2023-05-22T08:56:57.252Z,13.45
2023-05-22T08:59:25.042Z,6.30
2023-05-22T09:01:55.167Z,10.95
2023-05-22T09:04:24.122Z,8.30
2023-05-22T09:06:51.840Z,6.07
2023-05-22T09:09:19.115Z,5.30
2023-05-22T09:11:45.997Z,5.00
2023-05-22T09:14:13.112Z,6.05
2023-05-22T09:16:47.255Z,6.47
2023-05-22T09:19:15.326Z,5.32
2023-05-22T09:21:43.242Z,8.98
2023-05-22T09:24:11.130Z,6.57
2023-05-22T09:26:41.259Z,17.52
2023-05-22T09:29:08.722Z,6.03
2023-05-22T09:31:41.926Z,6.28
2023-05-22T09:34:10.904Z,9.07
2023-05-22T09:36:37.630Z,10.55
2023-05-22T09:39:05.315Z,7.22
2023-05-22T09:41:37.127Z,14.40
2023-05-22T09:44:13.307Z,6.68
2023-05-22T09:46:41.665Z,8.82
2023-05-22T09:49:09.130Z,6.13
2023-05-22T09:51:38.257Z,10.10
2023-05-22T09:54:08.362Z,6.78
2023-05-22T09:56:39.850Z,8.07
2023-05-22T09:59:09.638Z,6.85
2023-05-22T10:01:38.972Z,4.55
2023-05-22T10:04:08.805Z,8.07
2023-05-22T10:06:37.074Z,4.82
2023-05-22T10:09:06.998Z,4.40
2023-05-22T10:11:34.506Z,7.65
2023-05-22T10:14:03.898Z,6.60
2023-05-22T10:16:31.480Z,6.88
2023-05-22T10:19:00.286Z,6.70
2023-05-22T10:21:29.651Z,4.30
2023-05-22T10:23:57.894Z,5.55
2023-05-22T10:26:26.058Z,6.20
2023-05-22T10:29:00.873Z,7.70
2023-05-22T10:31:46.144Z,6.22
2023-05-22T10:35:04.954Z,4.95
2023-05-22T10:37:59.530Z,5.72
2023-05-22T10:40:30.384Z,12.25
2023-05-22T10:42:59.350Z,3.70
2023-05-22T10:45:28.358Z,4.47
2023-05-22T10:48:08.780Z,6.50
2023-05-22T10:50:36.474Z,5.03
2023-05-22T10:53:25.891Z,6.63
2023-05-22T10:55:54.000Z,9.32
2023-05-22T10:58:31.369Z,5.07
2023-05-22T11:01:10.931Z,4.28
2023-05-22T11:04:14.358Z,8.07
2023-05-22T11:07:13.237Z,4.43
2023-05-22T11:09:48.899Z,3.72
2023-05-22T11:12:28.310Z,6.32
2023-05-22T11:14:58.399Z,9.27
2023-05-22T11:17:36.172Z,6.60
2023-05-22T11:20:05.563Z,7.95
2023-05-22T11:22:38.916Z,4.38
2023-05-22T11:25:11.655Z,5.35
2023-05-22T11:27:41.206Z,5.80
2023-05-22T11:30:09.616Z,8.43
2023-05-22T11:32:37.423Z,6.90
2023-05-22T11:35:10.690Z,5.70
2023-05-22T11:37:41.684Z,4.97
2023-05-22T11:40:09.884Z,11.45
2023-05-22T11:42:37.808Z,5.88
2023-05-22T11:45:05.608Z,5.20
2023-05-22T11:47:32.883Z,10.43
2023-05-22T11:50:01.520Z,6.07
2023-05-22T11:52:36.994Z,4.15
2023-05-22T11:55:08.028Z,4.78
2023-05-22T11:57:35.805Z,6.45
2023-05-22T12:00:06.449Z,6.05
2023-05-22T12:02:39.527Z,9.30
2023-05-22T12:05:10.122Z,3.22
2023-05-22T12:07:37.771Z,5.18
2023-05-22T12:10:07.196Z,4.30
2023-05-22T12:12:34.486Z,17.08
2023-05-22T12:15:01.323Z,5.22
2023-05-22T12:17:28.704Z,8.70
2023-05-22T12:19:55.613Z,11.52
2023-05-22T12:22:26.235Z,5.45
2023-05-22T12:24:53.156Z,9.07
2023-05-22T12:27:20.228Z,8.02
2023-05-22T12:29:47.038Z,3.92
2023-05-22T12:32:14.138Z,7.60
2023-05-22T12:34:45.649Z,4.60
2023-05-22T12:37:25.229Z,10.20
2023-05-22T12:39:56.835Z,6.75
2023-05-22T12:42:25.046Z,6.45
2023-05-22T12:44:56.614Z,14.18
2023-05-22T12:47:25.373Z,8.45
2023-05-22T12:49:52.568Z,5.10
2023-05-22T12:52:19.674Z,6.18
2023-05-22T12:54:46.454Z,11.70
2023-05-22T12:57:13.845Z,8.75
2023-05-22T12:59:41.172Z,7.15
2023-05-22T13:02:09.460Z,4.13
2023-05-22T13:04:36.322Z,4.00
2023-05-22T13:07:03.369Z,6.75
2023-05-22T13:09:30.526Z,2.85
2023-05-22T13:11:57.573Z,5.70
2023-05-22T13:14:24.448Z,5.22
2023-05-22T13:16:51.503Z,8.30
2023-05-22T13:19:18.409Z,6.63
2023-05-22T13:21:45.649Z,10.32
2023-05-22T13:24:12.453Z,8.95
2023-05-22T13:26:39.490Z,3.28
2023-05-22T13:29:06.602Z,6.43
2023-05-22T13:31:37.316Z,5.50
2023-05-22T13:34:04.933Z,4.75
2023-05-22T13:36:32.651Z,6.07
2023-05-22T13:38:59.565Z,7.68
2023-05-22T13:41:26.774Z,7.10
2023-05-22T13:43:53.729Z,6.57
2023-05-22T13:46:22.111Z,8.73
2023-05-22T13:48:49.246Z,9.88
2023-05-22T13:51:16.620Z,5.55
2023-05-22T13:53:43.424Z,4.20
2023-05-22T13:56:10.681Z,6.75
2023-05-22T13:58:38.194Z,9.50
2023-05-22T14:01:06.531Z,5.85
2023-05-22T14:03:33.730Z,5.68
2023-05-22T14:06:01.146Z,7.18
2023-05-22T14:08:27.923Z,5.70
2023-05-22T14:10:55.033Z,6.57
2023-05-22T14:13:21.934Z,6.57
2023-05-22T14:15:49.394Z,3.95
2023-05-22T14:18:16.644Z,5.82
2023-05-22T14:20:44.453Z,6.00
2023-05-22T14:23:12.272Z,4.97
2023-05-22T14:25:43.148Z,7.50
2023-05-22T14:28:11.331Z,4.75
2023-05-22T14:30:39.099Z,7.85
2023-05-22T14:33:06.490Z,7.82
2023-05-22T14:35:33.893Z,4.82
2023-05-22T14:38:01.522Z,4.28
2023-05-22T14:40:28.808Z,4.88
2023-05-22T14:42:55.871Z,4.70
2023-05-22T14:45:23.043Z,6.18
2023-05-22T14:47:50.058Z,6.97
2023-05-22T14:50:20.369Z,8.30
2023-05-22T14:52:49.033Z,5.63
2023-05-22T14:55:17.116Z,6.60
2023-05-22T14:57:44.044Z,3.92
2023-05-22T15:00:12.260Z,6.25
2023-05-22T15:02:39.974Z,4.15
2023-05-22T15:05:07.990Z,8.32
2023-05-22T15:07:43.889Z,6.65
2023-05-22T15:10:12.857Z,6.80
2023-05-22T15:12:39.816Z,3.90
2023-05-22T15:15:07.456Z,6.88
2023-05-22T15:17:34.369Z,4.20
2023-05-22T15:20:01.481Z,5.82
2023-05-22T15:22:28.213Z,8.18
2023-05-22T15:25:09.683Z,4.22
2023-05-22T15:27:36.483Z,9.60
2023-05-22T15:30:04.477Z,6.13
2023-05-22T15:32:33.018Z,4.28
2023-05-22T15:35:00.440Z,6.43
2023-05-22T15:37:29.054Z,5.63
2023-05-22T15:39:57.665Z,9.73
2023-05-22T15:42:24.629Z,9.55
2023-05-22T15:44:51.661Z,5.88
2023-05-22T15:47:18.400Z,9.82
2023-05-22T15:49:45.850Z,7.43
2023-05-22T15:52:13.021Z,8.70
2023-05-22T15:54:40.113Z,7.13
2023-05-22T15:57:07.056Z,7.88
2023-05-22T15:59:34.132Z,9.73
2023-05-22T16:02:00.911Z,5.68
2023-05-22T16:04:28.060Z,8.98
2023-05-22T16:06:54.831Z,10.27
2023-05-22T16:09:22.025Z,6.28
2023-05-22T16:11:49.325Z,5.85
2023-05-22T16:14:16.373Z,9.52
2023-05-22T16:16:43.771Z,8.35
2023-05-22T16:19:11.532Z,6.13
2023-05-22T16:21:38.801Z,16.75
2023-05-22T16:24:07.009Z,11.52
2023-05-22T16:26:33.986Z,11.65
2023-05-22T16:29:01.088Z,23.75
2023-05-22T16:31:28.703Z,13.10
2023-05-22T16:33:55.992Z,8.70
2023-05-22T16:36:23.757Z,8.18
2023-05-22T16:38:52.158Z,12.00
2023-05-22T16:41:18.905Z,11.73
2023-05-22T16:43:46.040Z,11.68
2023-05-22T16:46:12.885Z,16.30
2023-05-22T16:48:39.907Z,11.95
2023-05-22T16:51:06.701Z,13.70
2023-05-22T16:53:34.368Z,8.55
2023-05-22T16:56:02.378Z,9.90
2023-05-22T16:58:29.440Z,10.98
2023-05-22T17:00:56.418Z,11.30
2023-05-22T17:03:23.578Z,9.38
2023-05-22T17:05:50.505Z,9.43
2023-05-22T17:08:17.626Z,7.68
2023-05-22T17:10:44.424Z,16.58
2023-05-22T17:13:19.575Z,9.30
2023-05-22T17:15:51.300Z,5.38
2023-05-22T17:18:22.418Z,10.20
2023-05-22T17:20:50.728Z,9.00
2023-05-22T17:23:17.930Z,11.05
2023-05-22T17:25:46.702Z,9.82
2023-05-22T17:28:15.046Z,5.13
2023-05-22T17:30:43.304Z,5.88
2023-05-22T17:33:11.030Z,7.30
2023-05-22T17:35:37.926Z,5.70
2023-05-22T17:38:04.981Z,10.65
2023-05-22T17:40:44.170Z,6.90
2023-05-22T17:43:13.944Z,14.35
2023-05-22T17:45:41.738Z,8.20
2023-05-22T17:48:08.975Z,8.32
2023-05-22T17:50:35.761Z,10.45
2023-05-22T17:53:03.242Z,7.82
2023-05-22T17:55:30.050Z,8.07
2023-05-22T17:57:57.317Z,8.98
2023-05-22T18:00:24.039Z,9.07
2023-05-22T18:02:51.242Z,5.95
2023-05-22T18:05:18.255Z,5.30
2023-05-22T18:07:45.337Z,5.30
2023-05-22T18:10:12.163Z,5.55
2023-05-22T18:12:39.377Z,5.65
2023-05-22T18:15:09.450Z,9.05
2023-05-22T18:17:36.748Z,13.48
2023-05-22T18:20:06.844Z,19.50
2023-05-22T18:22:38.408Z,32.97
2023-05-22T18:25:09.213Z,27.33
2023-05-22T18:27:36.468Z,12.40
2023-05-22T18:30:05.190Z,12.73
2023-05-22T18:32:32.563Z,10.07
2023-05-22T18:35:00.141Z,8.00
2023-05-22T18:37:27.136Z,11.20
2023-05-22T18:39:54.100Z,22.58
2023-05-22T18:42:21.363Z,24.75
2023-05-22T18:44:49.178Z,25.63
2023-05-22T18:47:16.968Z,13.98
2023-05-22T18:49:43.925Z,18.45
2023-05-22T18:52:11.039Z,14.50
2023-05-22T18:54:37.849Z,17.30
2023-05-22T18:57:04.965Z,19.00
2023-05-22T18:59:31.729Z,13.02
2023-05-22T19:01:58.769Z,21.13
2023-05-22T19:04:25.854Z,11.30
2023-05-22T19:06:53.818Z,10.00
2023-05-22T19:09:20.633Z,9.98
2023-05-22T19:11:47.740Z,22.63
2023-05-22T19:14:14.534Z,15.75
2023-05-22T19:16:43.057Z,15.77
2023-05-22T19:19:11.629Z,22.40
2023-05-22T19:21:38.932Z,18.70
2023-05-22T19:24:06.392Z,21.77
2023-05-22T19:26:33.632Z,33.47
2023-05-22T19:29:00.597Z,22.38
2023-05-22T19:31:30.804Z,20.58
2023-05-22T19:33:57.967Z,30.15
2023-05-22T19:36:25.011Z,18.98
2023-05-22T19:38:53.485Z,31.38
2023-05-22T19:41:22.797Z,32.88
2023-05-22T19:43:51.331Z,32.00
2023-05-22T19:46:18.481Z,22.73
2023-05-22T19:48:45.387Z,26.17
2023-05-22T19:51:12.423Z,26.23
2023-05-22T19:53:39.251Z,23.75
2023-05-22T19:56:06.621Z,25.52
2023-05-22T19:58:33.711Z,22.20
2023-05-22T20:01:00.755Z,24.60
2023-05-22T20:03:27.911Z,24.35
2023-05-22T20:05:54.907Z,15.63
2023-05-22T20:08:22.463Z,10.57
2023-05-22T20:10:49.511Z,11.68
2023-05-22T20:13:17.001Z,10.10
2023-05-22T20:15:47.545Z,15.20
2023-05-22T20:18:14.983Z,12.65
2023-05-22T20:20:41.780Z,13.43
2023-05-22T20:23:08.907Z,14.20
2023-05-22T20:25:36.165Z,18.75
2023-05-22T20:28:03.662Z,15.20
2023-05-22T20:30:31.307Z,12.82
2023-05-22T20:32:58.597Z,12.18
2023-05-22T20:35:26.458Z,10.85
2023-05-22T20:37:53.828Z,16.17
2023-05-22T20:40:20.820Z,11.98
2023-05-22T20:42:47.952Z,15.57
2023-05-22T20:45:15.649Z,14.43
2023-05-22T20:47:43.414Z,20.98
2023-05-22T20:50:11.160Z,14.35
2023-05-22T20:52:38.309Z,13.32
2023-05-22T20:55:06.667Z,13.18
2023-05-22T20:57:34.420Z,10.52
2023-05-22T21:00:01.514Z,10.45
2023-05-22T21:02:28.796Z,10.85
2023-05-22T21:04:56.067Z,9.95
2023-05-22T21:07:23.251Z,10.00
2023-05-22T21:09:50.146Z,9.75
2023-05-22T21:12:17.376Z,10.50
2023-05-22T21:14:44.328Z,9.48
2023-05-22T21:17:11.378Z,10.60
2023-05-22T21:19:38.277Z,16.00
2023-05-22T21:22:05.534Z,13.25
2023-05-22T21:24:32.636Z,12.27
2023-05-22T21:26:59.876Z,13.07
2023-05-22T21:29:26.712Z,11.25
2023-05-22T21:31:53.885Z,10.77
2023-05-22T21:34:20.871Z,13.35
2023-05-22T21:36:47.901Z,13.20
2023-05-22T21:39:14.653Z,15.75
2023-05-22T21:41:41.674Z,19.98
2023-05-22T21:44:09.919Z,14.80
2023-05-22T21:46:37.283Z,16.55
2023-05-22T21:49:05.980Z,15.50
2023-05-22T21:51:33.182Z,14.00
2023-05-22T21:53:59.925Z,11.75
2023-05-22T21:56:27.089Z,13.63
2023-05-22T21:58:53.897Z,9.70
2023-05-22T22:01:21.338Z,14.07
2023-05-22T22:03:48.174Z,13.10
2023-05-22T22:06:15.175Z,13.77
2023-05-22T22:08:42.001Z,11.98
2023-05-22T22:11:08.987Z,11.48
2023-05-22T22:13:36.412Z,16.27
2023-05-22T22:16:03.588Z,14.07
2023-05-22T22:18:34.860Z,17.33
2023-05-22T22:21:02.339Z,12.55
2023-05-22T22:23:29.701Z,16.98
2023-05-22T22:25:56.758Z,14.85
2023-05-22T22:28:23.538Z,14.88
2023-05-22T22:30:50.660Z,17.45
2023-05-22T22:33:17.917Z,11.25
2023-05-22T22:35:45.907Z,14.45
2023-05-22T22:38:12.737Z,17.45
2023-05-22T22:40:40.985Z,16.38
2023-05-22T22:43:07.949Z,10.27
2023-05-22T22:45:35.066Z,14.07
2023-05-22T22:48:01.856Z,16.27
2023-05-22T22:50:28.968Z,13.68
2023-05-22T22:52:55.706Z,18.70
2023-05-22T22:55:22.891Z,21.42
2023-05-22T22:57:50.207Z,18.25
2023-05-22T23:00:18.943Z,14.43
2023-05-22T23:02:46.382Z,16.17
2023-05-22T23:05:14.920Z,19.42
2023-05-22T23:07:41.801Z,19.98
2023-05-22T23:10:09.178Z,13.20
2023-05-22T23:12:36.298Z,14.30
2023-05-22T23:15:03.912Z,18.02
2023-05-22T23:17:30.854Z,16.85
2023-05-22T23:19:57.995Z,18.77
2023-05-22T23:22:24.764Z,12.35
2023-05-22T23:24:51.892Z,18.50
2023-05-22T23:27:18.829Z,16.30
2023-05-22T23:29:45.880Z,11.95
2023-05-22T23:32:14.732Z,14.80
2023-05-22T23:34:42.462Z,13.77
2023-05-22T23:37:09.984Z,17.05
2023-05-22T23:39:37.030Z,16.63
2023-05-22T23:42:03.985Z,18.55
2023-05-22T23:44:31.557Z,14.70
2023-05-22T23:46:58.353Z,14.48
2023-05-22T23:49:26.408Z,15.30
2023-05-22T23:51:53.397Z,18.63
2023-05-22T23:54:20.839Z,17.33
2023-05-22T23:56:47.618Z,19.50
2023-05-22T23:59:15.714Z,14.30
